Diamantis P — A8WA2 — position and weather

sailwx.info

Track history (hours):
 
Tides and Currents Weather Stations Pressure Air Temp Water Temp Dewpoint Dewpoint Depression Visibility Wind Speed Wind Dir Waves Ship Positions

Diamantis P

Last reported at 2017-Nov-23 05:31 UTC. Time now 2017-Nov-23 05:45 UTC.
Position N 37°55' E 023°35'.

Length 188 m; draft 8.9 m.

Type: Cargo ship. MMSI: 636014699.

Date/timePositionNaut miles runAvg speedWind from/ knotsBaromVisibWave heightAir tempDewpointWater temp
2017-Nov-23 05:31N 37°55' E 023°35'3 6.0
2017-Nov-23 05:01N 37°52' E 023°34'1 2.7
2017-Nov-23 04:31N 37°50' E 023°34'0 0.5
2017-Nov-23 04:01N 37°51' E 023°34'1 1.2
2017-Nov-23 03:31N 37°51' E 023°35'0 0.5
2017-Nov-23 03:01N 37°51' E 023°35'0 0.5
2017-Nov-23 02:31N 37°51' E 023°35'1 2.7
2017-Nov-23 02:01N 37°51' E 023°36'3 5.8
2017-Nov-23 01:31N 37°49' E 023°40'4 7.7
2017-Nov-23 01:01N 37°46' E 023°42'4 8.3
2017-Nov-23 00:31N 37°42' E 023°44'510.3
2017-Nov-23 00:00N 37°37' E 023°47'1213.1
2017-Nov-22 23:03N 37°30' E 023°59'113.1
2017-Nov-22 22:56N 37°28' E 024°00'613.0
2017-Nov-22 22:31N 37°25' E 024°05'713.1
2017-Nov-22 22:01N 37°21' E 024°12'713.4
2017-Nov-22 21:31N 37°16' E 024°18'712.8
2017-Nov-22 20:57N 37°14' E 024°27'613.0
2017-Nov-22 20:31N 37°13' E 024°34'713.6
2017-Nov-22 20:01N 37°08' E 024°40'713.9
2017-Nov-22 19:30N 37°02' E 024°45'  
2017-Nov-18 06:30N 32°54' E 034°59'0 0.0
2017-Nov-18 05:51N 32°54' E 034°59'0 0.0
2017-Nov-18 05:29N 32°54' E 034°59'0 0.0
2017-Nov-18 05:00N 32°54' E 034°59'0 0.0
2017-Nov-18 04:30N 32°54' E 034°59'0 0.0
2017-Nov-18 02:41N 32°54' E 034°59'0 0.0
2017-Nov-18 02:30N 32°54' E 034°59'0 0.0
2017-Nov-17 23:31N 32°54' E 034°59'0 0.0
2017-Nov-17 23:10N 32°54' E 034°59'0 0.1
2017-Nov-17 23:00N 32°54' E 034°59'0 0.0
2017-Nov-17 22:30N 32°54' E 034°59'0 0.0
2017-Nov-17 21:59N 32°54' E 034°59'0 0.0
2017-Nov-17 21:30N 32°54' E 034°59'0 0.0
2017-Nov-17 21:00N 32°54' E 034°59'0 0.1
2017-Nov-17 20:29N 32°54' E 034°59'0 0.1
2017-Nov-17 20:00N 32°54' E 034°59'0 0.0
2017-Nov-17 18:24N 32°54' E 034°59'0 0.2
2017-Nov-17 17:59N 32°54' E 034°59'3 6.2
2017-Nov-17 17:30N 32°53' E 034°56'6 9.8
2017-Nov-17 16:55N 32°50' E 034°50'512.5
2017-Nov-17 16:30N 32°46' E 034°48'612.6
2017-Nov-17 16:00N 32°40' E 034°46'612.6
2017-Nov-17 15:30N 32°33' E 034°44'612.4
2017-Nov-17 15:00N 32°28' E 034°42'612.7
2017-Nov-17 14:30N 32°21' E 034°39'612.7
2017-Nov-17 14:00N 32°15' E 034°37'612.7
2017-Nov-17 13:30N 32°09' E 034°35'912.6
2017-Nov-17 12:49N 32°01' E 034°33'412.4
2017-Nov-17 12:30N 31°57' E 034°31'510.9
2017-Nov-17 12:01N 31°52' E 034°32'510.5
2017-Nov-17 11:30N 31°51' E 034°38'2 0.1
2017-Nov-16 13:25N 31°49' E 034°39'  
Track history (hours):
 
Tides and Currents Weather Stations Pressure Air Temp Water Temp Dewpoint Dewpoint Depression Visibility Wind Speed Wind Dir Waves Ship Positions

Diamantis P

Last reported at 2017-Nov-23 05:31 UTC. Time now 2017-Nov-23 05:45 UTC.
Position N 37°55' E 023°35'.

Length 188 m; draft 8.9 m.

Type: Cargo ship. MMSI: 636014699.

Date/timePositionNaut miles runAvg speedWind from/ knotsBaromVisibWave heightAir tempDewpointWater temp
2017-Nov-23 05:31N 37°55' E 023°35'3 6.0
2017-Nov-23 05:01N 37°52' E 023°34'1 2.7
2017-Nov-23 04:31N 37°50' E 023°34'0 0.5
2017-Nov-23 04:01N 37°51' E 023°34'1 1.2
2017-Nov-23 03:31N 37°51' E 023°35'0 0.5
2017-Nov-23 03:01N 37°51' E 023°35'0 0.5
2017-Nov-23 02:31N 37°51' E 023°35'1 2.7
2017-Nov-23 02:01N 37°51' E 023°36'3 5.8
2017-Nov-23 01:31N 37°49' E 023°40'4 7.7
2017-Nov-23 01:01N 37°46' E 023°42'4 8.3
2017-Nov-23 00:31N 37°42' E 023°44'510.3
2017-Nov-23 00:00N 37°37' E 023°47'1213.1
2017-Nov-22 23:03N 37°30' E 023°59'113.1
2017-Nov-22 22:56N 37°28' E 024°00'613.0
2017-Nov-22 22:31N 37°25' E 024°05'713.1
2017-Nov-22 22:01N 37°21' E 024°12'713.4
2017-Nov-22 21:31N 37°16' E 024°18'712.8
2017-Nov-22 20:57N 37°14' E 024°27'613.0
2017-Nov-22 20:31N 37°13' E 024°34'713.6
2017-Nov-22 20:01N 37°08' E 024°40'713.9
2017-Nov-22 19:30N 37°02' E 024°45'  
2017-Nov-18 06:30N 32°54' E 034°59'0 0.0
2017-Nov-18 05:51N 32°54' E 034°59'0 0.0
2017-Nov-18 05:29N 32°54' E 034°59'0 0.0
2017-Nov-18 05:00N 32°54' E 034°59'0 0.0
2017-Nov-18 04:30N 32°54' E 034°59'0 0.0
2017-Nov-18 02:41N 32°54' E 034°59'0 0.0
2017-Nov-18 02:30N 32°54' E 034°59'0 0.0
2017-Nov-17 23:31N 32°54' E 034°59'0 0.0
2017-Nov-17 23:10N 32°54' E 034°59'0 0.1
2017-Nov-17 23:00N 32°54' E 034°59'0 0.0
2017-Nov-17 22:30N 32°54' E 034°59'0 0.0
2017-Nov-17 21:59N 32°54' E 034°59'0 0.0
2017-Nov-17 21:30N 32°54' E 034°59'0 0.0
2017-Nov-17 21:00N 32°54' E 034°59'0 0.1
2017-Nov-17 20:29N 32°54' E 034°59'0 0.1
2017-Nov-17 20:00N 32°54' E 034°59'0 0.0
2017-Nov-17 18:24N 32°54' E 034°59'0 0.2
2017-Nov-17 17:59N 32°54' E 034°59'3 6.2
2017-Nov-17 17:30N 32°53' E 034°56'6 9.8
2017-Nov-17 16:55N 32°50' E 034°50'512.5
2017-Nov-17 16:30N 32°46' E 034°48'612.6
2017-Nov-17 16:00N 32°40' E 034°46'612.6
2017-Nov-17 15:30N 32°33' E 034°44'612.4
2017-Nov-17 15:00N 32°28' E 034°42'612.7
2017-Nov-17 14:30N 32°21' E 034°39'612.7
2017-Nov-17 14:00N 32°15' E 034°37'612.7
2017-Nov-17 13:30N 32°09' E 034°35'912.6
2017-Nov-17 12:49N 32°01' E 034°33'412.4
2017-Nov-17 12:30N 31°57' E 034°31'510.9
2017-Nov-17 12:01N 31°52' E 034°32'510.5
2017-Nov-17 11:30N 31°51' E 034°38'2 0.1
2017-Nov-16 13:25N 31°49' E 034°39'  

Dump ship's entire track history